sensor_id;sensor_type;location;lat;lon;timestamp;P1;durP1;ratioP1;P2;durP2;ratioP2
18320;SDS011;54904;54.350;18.664;2022-12-07T00:00:20;23.83;;;11.30;;
18320;SDS011;54904;54.350;18.664;2022-12-07T00:02:47;22.37;;;11.23;;
18320;SDS011;54904;54.350;18.664;2022-12-07T00:05:14;24.50;;;12.07;;
18320;SDS011;54904;54.350;18.664;2022-12-07T00:07:43;23.37;;;12.37;;
18320;SDS011;54904;54.350;18.664;2022-12-07T00:10:10;19.73;;;10.53;;
18320;SDS011;54904;54.350;18.664;2022-12-07T00:12:37;22.83;;;12.40;;
18320;SDS011;54904;54.350;18.664;2022-12-07T00:15:04;18.07;;;9.93;;
18320;SDS011;54904;54.350;18.664;2022-12-07T00:17:32;16.83;;;9.27;;
18320;SDS011;54904;54.350;18.664;2022-12-07T00:19:59;15.87;;;8.83;;
18320;SDS011;54904;54.350;18.664;2022-12-07T00:22:26;14.33;;;8.07;;
18320;SDS011;54904;54.350;18.664;2022-12-07T00:24:55;12.10;;;7.30;;
18320;SDS011;54904;54.350;18.664;2022-12-07T00:27:22;12.13;;;6.27;;
18320;SDS011;54904;54.350;18.664;2022-12-07T00:29:50;9.80;;;6.03;;
18320;SDS011;54904;54.350;18.664;2022-12-07T00:32:17;10.10;;;5.97;;
18320;SDS011;54904;54.350;18.664;2022-12-07T00:34:44;8.77;;;5.50;;
18320;SDS011;54904;54.350;18.664;2022-12-07T00:37:11;9.73;;;5.67;;
18320;SDS011;54904;54.350;18.664;2022-12-07T00:39:38;8.23;;;5.00;;
18320;SDS011;54904;54.350;18.664;2022-12-07T00:42:07;8.93;;;5.37;;
18320;SDS011;54904;54.350;18.664;2022-12-07T00:44:34;6.80;;;4.80;;
18320;SDS011;54904;54.350;18.664;2022-12-07T00:47:01;8.93;;;5.37;;
18320;SDS011;54904;54.350;18.664;2022-12-07T00:49:28;6.07;;;4.77;;
18320;SDS011;54904;54.350;18.664;2022-12-07T00:51:55;8.83;;;5.57;;
18320;SDS011;54904;54.350;18.664;2022-12-07T00:54:22;8.10;;;4.93;;
18320;SDS011;54904;54.350;18.664;2022-12-07T00:56:49;8.47;;;5.60;;
18320;SDS011;54904;54.350;18.664;2022-12-07T00:59:17;9.43;;;5.23;;
18320;SDS011;54904;54.350;18.664;2022-12-07T01:01:44;6.43;;;4.57;;
18320;SDS011;54904;54.350;18.664;2022-12-07T01:04:11;12.50;;;6.40;;
18320;SDS011;54904;54.350;18.664;2022-12-07T01:06:38;13.10;;;7.00;;
18320;SDS011;54904;54.350;18.664;2022-12-07T01:09:06;12.63;;;6.97;;
18320;SDS011;54904;54.350;18.664;2022-12-07T01:11:33;9.33;;;5.87;;
18320;SDS011;54904;54.350;18.664;2022-12-07T01:14:00;8.00;;;5.40;;
18320;SDS011;54904;54.350;18.664;2022-12-07T01:16:29;10.80;;;6.17;;
18320;SDS011;54904;54.350;18.664;2022-12-07T01:18:58;8.43;;;5.03;;
18320;SDS011;54904;54.350;18.664;2022-12-07T01:21:26;7.70;;;4.80;;
18320;SDS011;54904;54.350;18.664;2022-12-07T01:23:56;7.83;;;4.97;;
18320;SDS011;54904;54.350;18.664;2022-12-07T01:26:24;8.17;;;4.90;;
18320;SDS011;54904;54.350;18.664;2022-12-07T01:28:52;6.83;;;4.60;;
18320;SDS011;54904;54.350;18.664;2022-12-07T01:31:21;6.23;;;4.20;;
18320;SDS011;54904;54.350;18.664;2022-12-07T01:33:51;7.30;;;4.53;;
18320;SDS011;54904;54.350;18.664;2022-12-07T01:36:20;8.07;;;4.60;;
18320;SDS011;54904;54.350;18.664;2022-12-07T01:38:50;8.20;;;5.00;;
18320;SDS011;54904;54.350;18.664;2022-12-07T01:41:22;6.20;;;4.57;;
18320;SDS011;54904;54.350;18.664;2022-12-07T01:44:10;6.83;;;4.07;;
18320;SDS011;54904;54.350;18.664;2022-12-07T01:46:48;6.53;;;4.30;;
18320;SDS011;54904;54.350;18.664;2022-12-07T01:49:20;5.80;;;4.20;;
18320;SDS011;54904;54.350;18.664;2022-12-07T01:51:52;7.13;;;4.57;;
18320;SDS011;54904;54.350;18.664;2022-12-07T01:54:24;6.63;;;4.73;;
18320;SDS011;54904;54.350;18.664;2022-12-07T01:56:53;6.43;;;4.20;;
18320;SDS011;54904;54.350;18.664;2022-12-07T01:59:23;7.80;;;5.03;;
18320;SDS011;54904;54.350;18.664;2022-12-07T02:01:52;7.73;;;4.50;;
18320;SDS011;54904;54.350;18.664;2022-12-07T02:04:22;8.63;;;5.00;;
18320;SDS011;54904;54.350;18.664;2022-12-07T02:06:49;7.37;;;4.70;;
18320;SDS011;54904;54.350;18.664;2022-12-07T02:09:17;8.33;;;5.10;;
18320;SDS011;54904;54.350;18.664;2022-12-07T02:11:44;5.73;;;4.07;;
18320;SDS011;54904;54.350;18.664;2022-12-07T02:14:12;6.30;;;4.10;;
18320;SDS011;54904;54.350;18.664;2022-12-07T02:16:42;8.07;;;4.50;;
18320;SDS011;54904;54.350;18.664;2022-12-07T02:19:28;8.37;;;4.60;;
18320;SDS011;54904;54.350;18.664;2022-12-07T02:22:23;7.17;;;4.30;;
18320;SDS011;54904;54.350;18.664;2022-12-07T02:25:15;7.73;;;4.73;;
18320;SDS011;54904;54.350;18.664;2022-12-07T02:27:56;8.07;;;4.60;;
18320;SDS011;54904;54.350;18.664;2022-12-07T02:30:31;6.77;;;4.57;;
18320;SDS011;54904;54.350;18.664;2022-12-07T02:33:03;7.93;;;4.93;;
18320;SDS011;54904;54.350;18.664;2022-12-07T02:35:34;7.90;;;4.50;;
18320;SDS011;54904;54.350;18.664;2022-12-07T02:38:08;7.30;;;4.20;;
18320;SDS011;54904;54.350;18.664;2022-12-07T02:40:41;8.83;;;4.27;;
18320;SDS011;54904;54.350;18.664;2022-12-07T02:43:14;8.70;;;4.90;;
18320;SDS011;54904;54.350;18.664;2022-12-07T02:45:45;6.90;;;4.30;;
18320;SDS011;54904;54.350;18.664;2022-12-07T02:48:14;6.23;;;4.50;;
18320;SDS011;54904;54.350;18.664;2022-12-07T02:50:44;5.40;;;3.93;;
18320;SDS011;54904;54.350;18.664;2022-12-07T02:55:58;11.37;;;6.37;;
18320;SDS011;54904;54.350;18.664;2022-12-07T02:58:30;7.17;;;4.70;;
18320;SDS011;54904;54.350;18.664;2022-12-07T03:01:09;7.97;;;4.97;;
18320;SDS011;54904;54.350;18.664;2022-12-07T03:03:44;8.93;;;5.30;;
18320;SDS011;54904;54.350;18.664;2022-12-07T03:06:20;8.20;;;4.93;;
18320;SDS011;54904;54.350;18.664;2022-12-07T03:08:53;7.93;;;5.07;;
18320;SDS011;54904;54.350;18.664;2022-12-07T03:11:25;5.63;;;4.57;;
18320;SDS011;54904;54.350;18.664;2022-12-07T03:14:02;6.33;;;4.10;;
18320;SDS011;54904;54.350;18.664;2022-12-07T03:16:39;4.97;;;3.23;;
18320;SDS011;54904;54.350;18.664;2022-12-07T03:19:13;4.90;;;3.30;;
18320;SDS011;54904;54.350;18.664;2022-12-07T03:21:44;6.80;;;3.97;;
18320;SDS011;54904;54.350;18.664;2022-12-07T03:24:14;5.70;;;3.90;;
18320;SDS011;54904;54.350;18.664;2022-12-07T03:26:46;4.33;;;3.47;;
18320;SDS011;54904;54.350;18.664;2022-12-07T03:29:17;3.80;;;3.00;;
18320;SDS011;54904;54.350;18.664;2022-12-07T03:31:49;4.73;;;3.57;;
18320;SDS011;54904;54.350;18.664;2022-12-07T03:34:26;5.93;;;3.97;;
18320;SDS011;54904;54.350;18.664;2022-12-07T03:36:57;3.93;;;3.23;;
18320;SDS011;54904;54.350;18.664;2022-12-07T03:39:29;5.13;;;3.90;;
18320;SDS011;54904;54.350;18.664;2022-12-07T03:42:02;3.70;;;3.20;;
18320;SDS011;54904;54.350;18.664;2022-12-07T03:44:32;2.73;;;2.43;;
18320;SDS011;54904;54.350;18.664;2022-12-07T03:47:03;5.10;;;3.37;;
18320;SDS011;54904;54.350;18.664;2022-12-07T03:49:36;4.57;;;3.17;;
18320;SDS011;54904;54.350;18.664;2022-12-07T03:52:09;4.80;;;3.13;;
18320;SDS011;54904;54.350;18.664;2022-12-07T03:54:45;4.83;;;2.97;;
18320;SDS011;54904;54.350;18.664;2022-12-07T03:57:18;2.50;;;2.30;;
18320;SDS011;54904;54.350;18.664;2022-12-07T03:59:46;3.43;;;2.70;;
18320;SDS011;54904;54.350;18.664;2022-12-07T04:02:15;4.43;;;2.57;;
18320;SDS011;54904;54.350;18.664;2022-12-07T04:04:42;2.83;;;2.37;;
18320;SDS011;54904;54.350;18.664;2022-12-07T04:07:09;3.87;;;2.80;;
18320;SDS011;54904;54.350;18.664;2022-12-07T04:09:38;2.50;;;2.30;;
18320;SDS011;54904;54.350;18.664;2022-12-07T04:12:05;1.90;;;1.80;;
18320;SDS011;54904;54.350;18.664;2022-12-07T04:14:32;1.83;;;1.73;;
18320;SDS011;54904;54.350;18.664;2022-12-07T04:17:00;2.23;;;2.03;;
18320;SDS011;54904;54.350;18.664;2022-12-07T04:19:29;2.50;;;2.30;;
18320;SDS011;54904;54.350;18.664;2022-12-07T04:21:57;1.83;;;1.63;;
18320;SDS011;54904;54.350;18.664;2022-12-07T04:24:25;1.83;;;1.73;;
18320;SDS011;54904;54.350;18.664;2022-12-07T04:26:53;1.87;;;1.60;;
18320;SDS011;54904;54.350;18.664;2022-12-07T04:29:21;2.10;;;1.90;;
18320;SDS011;54904;54.350;18.664;2022-12-07T04:31:48;2.17;;;1.97;;
18320;SDS011;54904;54.350;18.664;2022-12-07T04:34:16;2.50;;;1.87;;
18320;SDS011;54904;54.350;18.664;2022-12-07T04:36:45;1.67;;;1.57;;
18320;SDS011;54904;54.350;18.664;2022-12-07T04:39:17;1.33;;;1.23;;
18320;SDS011;54904;54.350;18.664;2022-12-07T04:41:46;2.00;;;1.60;;
18320;SDS011;54904;54.350;18.664;2022-12-07T04:44:13;1.50;;;1.40;;
18320;SDS011;54904;54.350;18.664;2022-12-07T04:46:41;2.00;;;1.30;;
18320;SDS011;54904;54.350;18.664;2022-12-07T04:49:09;2.63;;;1.80;;
18320;SDS011;54904;54.350;18.664;2022-12-07T04:51:36;1.70;;;1.60;;
18320;SDS011;54904;54.350;18.664;2022-12-07T04:54:05;2.10;;;1.90;;
18320;SDS011;54904;54.350;18.664;2022-12-07T04:56:32;1.80;;;1.70;;
18320;SDS011;54904;54.350;18.664;2022-12-07T04:59:01;1.83;;;1.73;;
18320;SDS011;54904;54.350;18.664;2022-12-07T05:01:29;1.40;;;1.30;;
18320;SDS011;54904;54.350;18.664;2022-12-07T05:03:56;2.17;;;1.63;;
18320;SDS011;54904;54.350;18.664;2022-12-07T05:06:24;1.50;;;1.40;;
18320;SDS011;54904;54.350;18.664;2022-12-07T05:08:51;1.50;;;1.40;;
18320;SDS011;54904;54.350;18.664;2022-12-07T05:11:19;1.80;;;1.60;;
18320;SDS011;54904;54.350;18.664;2022-12-07T05:14:06;1.77;;;1.67;;
18320;SDS011;54904;54.350;18.664;2022-12-07T05:16:35;1.50;;;1.40;;
18320;SDS011;54904;54.350;18.664;2022-12-07T05:19:02;1.53;;;1.43;;
18320;SDS011;54904;54.350;18.664;2022-12-07T05:21:30;1.73;;;1.20;;
18320;SDS011;54904;54.350;18.664;2022-12-07T05:23:57;1.70;;;1.60;;
18320;SDS011;54904;54.350;18.664;2022-12-07T05:26:27;1.60;;;1.50;;
18320;SDS011;54904;54.350;18.664;2022-12-07T05:28:54;1.80;;;1.70;;
18320;SDS011;54904;54.350;18.664;2022-12-07T05:31:22;2.00;;;1.60;;
18320;SDS011;54904;54.350;18.664;2022-12-07T05:33:50;1.30;;;1.20;;
18320;SDS011;54904;54.350;18.664;2022-12-07T05:36:17;1.30;;;1.20;;
18320;SDS011;54904;54.350;18.664;2022-12-07T05:38:44;1.40;;;1.30;;
18320;SDS011;54904;54.350;18.664;2022-12-07T05:41:12;1.20;;;1.20;;
18320;SDS011;54904;54.350;18.664;2022-12-07T05:43:57;1.20;;;1.20;;
18320;SDS011;54904;54.350;18.664;2022-12-07T05:46:24;1.40;;;1.30;;
18320;SDS011;54904;54.350;18.664;2022-12-07T05:48:51;1.60;;;1.50;;
18320;SDS011;54904;54.350;18.664;2022-12-07T05:51:18;1.40;;;1.33;;
18320;SDS011;54904;54.350;18.664;2022-12-07T05:53:45;1.57;;;1.30;;
18320;SDS011;54904;54.350;18.664;2022-12-07T05:56:12;1.40;;;1.30;;
18320;SDS011;54904;54.350;18.664;2022-12-07T05:58:39;1.43;;;1.33;;
18320;SDS011;54904;54.350;18.664;2022-12-07T06:01:25;1.07;;;1.07;;
18320;SDS011;54904;54.350;18.664;2022-12-07T06:03:52;1.40;;;1.30;;
18320;SDS011;54904;54.350;18.664;2022-12-07T06:06:19;1.70;;;1.60;;
18320;SDS011;54904;54.350;18.664;2022-12-07T06:08:46;1.83;;;1.53;;
18320;SDS011;54904;54.350;18.664;2022-12-07T06:11:13;1.20;;;1.20;;
18320;SDS011;54904;54.350;18.664;2022-12-07T06:13:58;1.20;;;1.17;;
18320;SDS011;54904;54.350;18.664;2022-12-07T06:16:26;1.67;;;1.57;;
18320;SDS011;54904;54.350;18.664;2022-12-07T06:18:53;1.70;;;1.40;;
18320;SDS011;54904;54.350;18.664;2022-12-07T06:21:20;1.40;;;1.30;;
18320;SDS011;54904;54.350;18.664;2022-12-07T06:23:47;1.43;;;1.30;;
18320;SDS011;54904;54.350;18.664;2022-12-07T06:26:15;1.30;;;1.20;;
18320;SDS011;54904;54.350;18.664;2022-12-07T06:28:42;1.40;;;1.30;;
18320;SDS011;54904;54.350;18.664;2022-12-07T06:31:09;1.10;;;1.10;;
18320;SDS011;54904;54.350;18.664;2022-12-07T06:33:38;0.97;;;0.97;;
18320;SDS011;54904;54.350;18.664;2022-12-07T06:36:05;1.23;;;1.10;;
18320;SDS011;54904;54.350;18.664;2022-12-07T06:38:32;1.10;;;1.10;;
18320;SDS011;54904;54.350;18.664;2022-12-07T06:40:59;1.07;;;0.90;;
18320;SDS011;54904;54.350;18.664;2022-12-07T06:43:26;1.13;;;1.00;;
18320;SDS011;54904;54.350;18.664;2022-12-07T06:45:54;0.80;;;0.80;;
18320;SDS011;54904;54.350;18.664;2022-12-07T06:48:21;0.90;;;0.90;;
18320;SDS011;54904;54.350;18.664;2022-12-07T06:50:49;0.80;;;0.80;;
18320;SDS011;54904;54.350;18.664;2022-12-07T06:53:16;0.60;;;0.60;;
18320;SDS011;54904;54.350;18.664;2022-12-07T06:55:44;0.80;;;0.80;;
18320;SDS011;54904;54.350;18.664;2022-12-07T06:58:11;0.97;;;0.80;;
18320;SDS011;54904;54.350;18.664;2022-12-07T07:00:38;1.03;;;1.03;;
18320;SDS011;54904;54.350;18.664;2022-12-07T07:03:05;0.90;;;0.90;;
18320;SDS011;54904;54.350;18.664;2022-12-07T07:05:32;0.90;;;0.90;;
18320;SDS011;54904;54.350;18.664;2022-12-07T07:08:01;0.73;;;0.73;;
18320;SDS011;54904;54.350;18.664;2022-12-07T07:10:29;0.80;;;0.80;;
18320;SDS011;54904;54.350;18.664;2022-12-07T07:12:56;1.57;;;1.47;;
18320;SDS011;54904;54.350;18.664;2022-12-07T07:15:23;1.20;;;1.00;;
18320;SDS011;54904;54.350;18.664;2022-12-07T07:17:50;1.20;;;1.10;;
18320;SDS011;54904;54.350;18.664;2022-12-07T07:20:17;1.53;;;1.43;;
18320;SDS011;54904;54.350;18.664;2022-12-07T07:22:44;2.63;;;1.20;;
18320;SDS011;54904;54.350;18.664;2022-12-07T07:25:13;1.23;;;1.17;;
18320;SDS011;54904;54.350;18.664;2022-12-07T07:27:40;1.13;;;1.07;;
18320;SDS011;54904;54.350;18.664;2022-12-07T07:30:08;0.90;;;0.90;;
18320;SDS011;54904;54.350;18.664;2022-12-07T07:32:36;1.40;;;1.30;;
18320;SDS011;54904;54.350;18.664;2022-12-07T07:35:03;1.40;;;1.30;;
18320;SDS011;54904;54.350;18.664;2022-12-07T07:37:31;1.30;;;1.20;;
18320;SDS011;54904;54.350;18.664;2022-12-07T07:39:58;1.10;;;1.10;;
18320;SDS011;54904;54.350;18.664;2022-12-07T07:42:26;1.50;;;1.40;;
18320;SDS011;54904;54.350;18.664;2022-12-07T07:44:53;1.50;;;1.40;;
18320;SDS011;54904;54.350;18.664;2022-12-07T07:47:20;1.50;;;1.40;;
18320;SDS011;54904;54.350;18.664;2022-12-07T07:49:47;1.33;;;1.23;;
18320;SDS011;54904;54.350;18.664;2022-12-07T07:52:14;1.47;;;1.37;;
18320;SDS011;54904;54.350;18.664;2022-12-07T07:54:41;1.67;;;1.57;;
18320;SDS011;54904;54.350;18.664;2022-12-07T07:57:08;2.40;;;1.60;;
18320;SDS011;54904;54.350;18.664;2022-12-07T07:59:37;1.53;;;1.43;;
18320;SDS011;54904;54.350;18.664;2022-12-07T08:02:04;1.70;;;1.60;;
18320;SDS011;54904;54.350;18.664;2022-12-07T08:04:31;1.73;;;1.37;;
18320;SDS011;54904;54.350;18.664;2022-12-07T08:06:58;3.67;;;2.10;;
18320;SDS011;54904;54.350;18.664;2022-12-07T08:09:25;2.00;;;1.80;;
18320;SDS011;54904;54.350;18.664;2022-12-07T08:11:52;2.00;;;1.80;;
18320;SDS011;54904;54.350;18.664;2022-12-07T08:14:19;2.47;;;1.83;;
18320;SDS011;54904;54.350;18.664;2022-12-07T08:16:48;1.90;;;1.80;;
18320;SDS011;54904;54.350;18.664;2022-12-07T08:19:15;2.33;;;1.90;;
18320;SDS011;54904;54.350;18.664;2022-12-07T08:21:42;2.03;;;1.90;;
18320;SDS011;54904;54.350;18.664;2022-12-07T08:24:09;2.63;;;2.00;;
18320;SDS011;54904;54.350;18.664;2022-12-07T08:26:36;2.50;;;1.90;;
18320;SDS011;54904;54.350;18.664;2022-12-07T08:29:03;2.80;;;2.10;;
18320;SDS011;54904;54.350;18.664;2022-12-07T08:31:30;3.27;;;2.50;;
18320;SDS011;54904;54.350;18.664;2022-12-07T08:33:59;3.07;;;2.70;;
18320;SDS011;54904;54.350;18.664;2022-12-07T08:36:26;4.47;;;2.70;;
18320;SDS011;54904;54.350;18.664;2022-12-07T08:38:53;3.50;;;3.13;;
18320;SDS011;54904;54.350;18.664;2022-12-07T08:41:20;3.90;;;2.83;;
18320;SDS011;54904;54.350;18.664;2022-12-07T08:43:47;4.77;;;2.47;;
18320;SDS011;54904;54.350;18.664;2022-12-07T08:46:16;3.93;;;3.13;;
18320;SDS011;54904;54.350;18.664;2022-12-07T08:48:46;3.80;;;2.63;;
18320;SDS011;54904;54.350;18.664;2022-12-07T08:51:20;2.20;;;2.10;;
18320;SDS011;54904;54.350;18.664;2022-12-07T08:53:48;2.63;;;2.43;;
18320;SDS011;54904;54.350;18.664;2022-12-07T08:56:17;3.17;;;2.87;;
18320;SDS011;54904;54.350;18.664;2022-12-07T08:58:45;3.60;;;2.97;;
18320;SDS011;54904;54.350;18.664;2022-12-07T09:01:13;3.63;;;2.70;;
18320;SDS011;54904;54.350;18.664;2022-12-07T09:03:40;3.47;;;2.80;;
18320;SDS011;54904;54.350;18.664;2022-12-07T09:06:07;8.20;;;4.67;;
18320;SDS011;54904;54.350;18.664;2022-12-07T09:08:36;5.53;;;3.57;;
18320;SDS011;54904;54.350;18.664;2022-12-07T09:11:11;3.93;;;2.90;;
18320;SDS011;54904;54.350;18.664;2022-12-07T09:13:38;3.80;;;2.43;;
18320;SDS011;54904;54.350;18.664;2022-12-07T09:16:06;2.57;;;2.37;;
18320;SDS011;54904;54.350;18.664;2022-12-07T09:18:33;2.33;;;2.13;;
18320;SDS011;54904;54.350;18.664;2022-12-07T09:21:00;2.20;;;1.80;;
18320;SDS011;54904;54.350;18.664;2022-12-07T09:23:27;2.20;;;2.00;;
18320;SDS011;54904;54.350;18.664;2022-12-07T09:25:58;3.03;;;2.00;;
18320;SDS011;54904;54.350;18.664;2022-12-07T09:28:25;2.20;;;2.03;;
18320;SDS011;54904;54.350;18.664;2022-12-07T09:30:52;1.60;;;1.50;;
18320;SDS011;54904;54.350;18.664;2022-12-07T09:33:20;1.70;;;1.60;;
18320;SDS011;54904;54.350;18.664;2022-12-07T09:35:47;1.70;;;1.60;;
18320;SDS011;54904;54.350;18.664;2022-12-07T09:38:15;2.10;;;1.80;;
18320;SDS011;54904;54.350;18.664;2022-12-07T09:40:43;1.90;;;1.80;;
18320;SDS011;54904;54.350;18.664;2022-12-07T09:43:13;2.07;;;1.70;;
18320;SDS011;54904;54.350;18.664;2022-12-07T09:45:43;2.10;;;1.90;;
18320;SDS011;54904;54.350;18.664;2022-12-07T09:48:14;2.43;;;2.20;;
18320;SDS011;54904;54.350;18.664;2022-12-07T09:50:45;3.93;;;2.40;;
18320;SDS011;54904;54.350;18.664;2022-12-07T09:53:14;3.37;;;2.60;;
18320;SDS011;54904;54.350;18.664;2022-12-07T09:55:46;3.77;;;3.00;;
18320;SDS011;54904;54.350;18.664;2022-12-07T09:58:16;2.93;;;2.63;;
18320;SDS011;54904;54.350;18.664;2022-12-07T10:00:47;2.60;;;2.13;;
18320;SDS011;54904;54.350;18.664;2022-12-07T10:03:14;2.57;;;2.27;;
18320;SDS011;54904;54.350;18.664;2022-12-07T10:05:42;2.73;;;2.50;;
18320;SDS011;54904;54.350;18.664;2022-12-07T10:08:12;2.83;;;2.60;;
18320;SDS011;54904;54.350;18.664;2022-12-07T10:10:40;2.13;;;2.00;;
18320;SDS011;54904;54.350;18.664;2022-12-07T10:13:08;2.40;;;2.20;;
18320;SDS011;54904;54.350;18.664;2022-12-07T10:15:48;2.07;;;1.97;;
18320;SDS011;54904;54.350;18.664;2022-12-07T10:21:13;2.83;;;2.47;;
18320;SDS011;54904;54.350;18.664;2022-12-07T10:23:43;2.60;;;2.40;;
18320;SDS011;54904;54.350;18.664;2022-12-07T10:26:28;3.40;;;2.90;;
18320;SDS011;54904;54.350;18.664;2022-12-07T10:28:58;3.43;;;2.73;;
18320;SDS011;54904;54.350;18.664;2022-12-07T10:31:28;2.60;;;2.40;;
18320;SDS011;54904;54.350;18.664;2022-12-07T10:33:56;3.00;;;2.70;;
18320;SDS011;54904;54.350;18.664;2022-12-07T10:36:24;3.23;;;2.70;;
18320;SDS011;54904;54.350;18.664;2022-12-07T10:38:53;3.20;;;2.47;;
18320;SDS011;54904;54.350;18.664;2022-12-07T10:41:26;2.60;;;2.40;;
18320;SDS011;54904;54.350;18.664;2022-12-07T10:43:54;5.23;;;3.37;;
18320;SDS011;54904;54.350;18.664;2022-12-07T10:49:51;2.80;;;2.20;;
18320;SDS011;54904;54.350;18.664;2022-12-07T10:55:42;3.50;;;2.80;;
18320;SDS011;54904;54.350;18.664;2022-12-07T11:01:21;2.53;;;2.23;;
18320;SDS011;54904;54.350;18.664;2022-12-07T11:03:55;5.63;;;2.83;;
18320;SDS011;54904;54.350;18.664;2022-12-07T11:06:44;2.77;;;2.50;;
18320;SDS011;54904;54.350;18.664;2022-12-07T11:09:34;2.20;;;2.00;;
18320;SDS011;54904;54.350;18.664;2022-12-07T11:12:28;2.37;;;2.17;;
18320;SDS011;54904;54.350;18.664;2022-12-07T11:15:08;2.53;;;2.33;;
18320;SDS011;54904;54.350;18.664;2022-12-07T11:17:42;2.40;;;2.20;;
18320;SDS011;54904;54.350;18.664;2022-12-07T11:20:24;2.47;;;2.27;;
18320;SDS011;54904;54.350;18.664;2022-12-07T11:23:03;7.60;;;2.70;;
18320;SDS011;54904;54.350;18.664;2022-12-07T11:25:38;3.03;;;2.50;;
18320;SDS011;54904;54.350;18.664;2022-12-07T11:28:18;2.30;;;2.10;;
18320;SDS011;54904;54.350;18.664;2022-12-07T11:30:56;2.23;;;1.80;;
18320;SDS011;54904;54.350;18.664;2022-12-07T11:33:33;5.57;;;2.67;;
18320;SDS011;54904;54.350;18.664;2022-12-07T11:36:12;2.77;;;2.50;;
18320;SDS011;54904;54.350;18.664;2022-12-07T11:38:57;3.10;;;2.20;;
18320;SDS011;54904;54.350;18.664;2022-12-07T11:41:27;2.83;;;2.43;;
18320;SDS011;54904;54.350;18.664;2022-12-07T11:43:58;2.90;;;2.60;;
18320;SDS011;54904;54.350;18.664;2022-12-07T11:46:36;2.63;;;2.10;;
18320;SDS011;54904;54.350;18.664;2022-12-07T11:49:13;3.67;;;2.80;;
18320;SDS011;54904;54.350;18.664;2022-12-07T11:51:46;2.77;;;2.53;;
18320;SDS011;54904;54.350;18.664;2022-12-07T11:54:16;2.40;;;2.20;;
18320;SDS011;54904;54.350;18.664;2022-12-07T11:56:46;2.43;;;2.10;;
18320;SDS011;54904;54.350;18.664;2022-12-07T11:59:17;2.73;;;2.53;;
18320;SDS011;54904;54.350;18.664;2022-12-07T12:01:51;3.10;;;2.83;;
18320;SDS011;54904;54.350;18.664;2022-12-07T12:04:27;2.73;;;2.53;;
18320;SDS011;54904;54.350;18.664;2022-12-07T12:07:02;2.87;;;2.67;;
18320;SDS011;54904;54.350;18.664;2022-12-07T12:09:32;2.50;;;2.30;;
18320;SDS011;54904;54.350;18.664;2022-12-07T12:12:12;2.50;;;2.30;;
18320;SDS011;54904;54.350;18.664;2022-12-07T12:15:09;2.40;;;2.20;;
18320;SDS011;54904;54.350;18.664;2022-12-07T12:17:57;2.73;;;2.53;;
18320;SDS011;54904;54.350;18.664;2022-12-07T12:20:43;2.30;;;2.10;;
18320;SDS011;54904;54.350;18.664;2022-12-07T12:23:15;2.83;;;2.53;;
18320;SDS011;54904;54.350;18.664;2022-12-07T12:25:45;2.93;;;2.70;;
18320;SDS011;54904;54.350;18.664;2022-12-07T12:28:23;2.60;;;2.40;;
18320;SDS011;54904;54.350;18.664;2022-12-07T12:33:43;3.27;;;2.30;;
18320;SDS011;54904;54.350;18.664;2022-12-07T12:36:20;3.40;;;2.57;;
18320;SDS011;54904;54.350;18.664;2022-12-07T12:38:52;2.80;;;2.60;;
18320;SDS011;54904;54.350;18.664;2022-12-07T12:41:52;2.67;;;2.47;;
18320;SDS011;54904;54.350;18.664;2022-12-07T12:44:40;3.00;;;2.70;;
18320;SDS011;54904;54.350;18.664;2022-12-07T12:50:15;3.10;;;2.80;;
18320;SDS011;54904;54.350;18.664;2022-12-07T12:52:49;3.57;;;3.00;;
18320;SDS011;54904;54.350;18.664;2022-12-07T12:58:29;5.80;;;3.20;;
18320;SDS011;54904;54.350;18.664;2022-12-07T13:04:12;4.13;;;3.00;;
18320;SDS011;54904;54.350;18.664;2022-12-07T13:06:53;4.83;;;3.73;;
18320;SDS011;54904;54.350;18.664;2022-12-07T13:09:21;5.30;;;3.40;;
18320;SDS011;54904;54.350;18.664;2022-12-07T13:11:55;4.37;;;3.40;;
18320;SDS011;54904;54.350;18.664;2022-12-07T13:14:53;3.73;;;3.30;;
18320;SDS011;54904;54.350;18.664;2022-12-07T13:23:21;4.17;;;2.90;;
18320;SDS011;54904;54.350;18.664;2022-12-07T13:25:53;4.23;;;3.13;;
18320;SDS011;54904;54.350;18.664;2022-12-07T13:28:25;4.70;;;3.50;;
18320;SDS011;54904;54.350;18.664;2022-12-07T13:31:02;3.83;;;3.10;;
18320;SDS011;54904;54.350;18.664;2022-12-07T13:33:37;3.87;;;2.80;;
18320;SDS011;54904;54.350;18.664;2022-12-07T13:36:05;5.63;;;2.93;;
18320;SDS011;54904;54.350;18.664;2022-12-07T13:38:48;3.43;;;2.57;;
18320;SDS011;54904;54.350;18.664;2022-12-07T13:41:20;2.83;;;2.43;;
18320;SDS011;54904;54.350;18.664;2022-12-07T13:43:49;5.27;;;3.70;;
18320;SDS011;54904;54.350;18.664;2022-12-07T13:46:28;6.07;;;3.73;;
18320;SDS011;54904;54.350;18.664;2022-12-07T13:49:13;5.57;;;4.17;;
18320;SDS011;54904;54.350;18.664;2022-12-07T13:51:43;7.40;;;4.67;;
18320;SDS011;54904;54.350;18.664;2022-12-07T13:54:11;9.20;;;4.10;;
18320;SDS011;54904;54.350;18.664;2022-12-07T13:56:39;6.00;;;3.23;;
18320;SDS011;54904;54.350;18.664;2022-12-07T13:59:10;9.73;;;4.10;;
18320;SDS011;54904;54.350;18.664;2022-12-07T14:01:41;7.13;;;4.13;;
18320;SDS011;54904;54.350;18.664;2022-12-07T14:04:32;5.13;;;3.50;;
18320;SDS011;54904;54.350;18.664;2022-12-07T14:07:00;4.83;;;3.67;;
18320;SDS011;54904;54.350;18.664;2022-12-07T14:09:53;4.40;;;3.40;;
18320;SDS011;54904;54.350;18.664;2022-12-07T14:12:21;5.40;;;3.17;;
18320;SDS011;54904;54.350;18.664;2022-12-07T14:14:49;3.37;;;2.70;;
18320;SDS011;54904;54.350;18.664;2022-12-07T14:17:19;3.40;;;2.53;;
18320;SDS011;54904;54.350;18.664;2022-12-07T14:19:48;4.00;;;2.50;;
18320;SDS011;54904;54.350;18.664;2022-12-07T14:22:19;6.30;;;3.30;;
18320;SDS011;54904;54.350;18.664;2022-12-07T14:27:52;3.33;;;2.90;;
18320;SDS011;54904;54.350;18.664;2022-12-07T14:30:23;4.47;;;3.10;;
18320;SDS011;54904;54.350;18.664;2022-12-07T14:32:54;5.37;;;3.30;;
18320;SDS011;54904;54.350;18.664;2022-12-07T14:35:24;3.70;;;3.10;;
18320;SDS011;54904;54.350;18.664;2022-12-07T14:37:52;4.27;;;3.00;;
18320;SDS011;54904;54.350;18.664;2022-12-07T14:40:20;4.57;;;3.03;;
18320;SDS011;54904;54.350;18.664;2022-12-07T14:42:53;3.17;;;2.57;;
18320;SDS011;54904;54.350;18.664;2022-12-07T14:45:23;4.23;;;3.03;;
18320;SDS011;54904;54.350;18.664;2022-12-07T14:47:50;3.67;;;2.70;;
18320;SDS011;54904;54.350;18.664;2022-12-07T14:50:20;3.63;;;2.63;;
18320;SDS011;54904;54.350;18.664;2022-12-07T14:52:48;4.13;;;3.13;;
18320;SDS011;54904;54.350;18.664;2022-12-07T14:55:20;4.33;;;3.20;;
18320;SDS011;54904;54.350;18.664;2022-12-07T14:57:50;5.53;;;3.40;;
18320;SDS011;54904;54.350;18.664;2022-12-07T15:00:18;4.67;;;3.00;;
18320;SDS011;54904;54.350;18.664;2022-12-07T15:02:46;4.63;;;3.17;;
18320;SDS011;54904;54.350;18.664;2022-12-07T15:05:16;4.87;;;3.13;;
18320;SDS011;54904;54.350;18.664;2022-12-07T15:07:46;4.07;;;3.10;;
18320;SDS011;54904;54.350;18.664;2022-12-07T15:10:14;3.63;;;2.90;;
18320;SDS011;54904;54.350;18.664;2022-12-07T15:12:44;5.17;;;3.00;;
18320;SDS011;54904;54.350;18.664;2022-12-07T15:15:11;6.30;;;3.27;;
18320;SDS011;54904;54.350;18.664;2022-12-07T15:17:39;4.60;;;3.07;;
18320;SDS011;54904;54.350;18.664;2022-12-07T15:20:07;4.70;;;2.90;;
18320;SDS011;54904;54.350;18.664;2022-12-07T15:22:38;3.73;;;2.77;;
18320;SDS011;54904;54.350;18.664;2022-12-07T15:25:06;5.37;;;2.87;;
18320;SDS011;54904;54.350;18.664;2022-12-07T15:27:33;3.13;;;2.50;;
18320;SDS011;54904;54.350;18.664;2022-12-07T15:30:00;2.53;;;2.13;;